sensor_id;sensor_type;location;lat;lon;timestamp;P1;durP1;ratioP1;P2;durP2;ratioP2
35689;SDS011;26977;44.830;-0.674;2023-02-20T00:01:08;41.75;;;25.35;;
35689;SDS011;26977;44.830;-0.674;2023-02-20T00:03:52;49.95;;;27.15;;
35689;SDS011;26977;44.830;-0.674;2023-02-20T00:06:51;46.63;;;27.73;;
35689;SDS011;26977;44.830;-0.674;2023-02-20T00:09:42;46.53;;;27.55;;
35689;SDS011;26977;44.830;-0.674;2023-02-20T00:12:30;43.65;;;25.95;;
35689;SDS011;26977;44.830;-0.674;2023-02-20T00:15:23;46.60;;;26.25;;
35689;SDS011;26977;44.830;-0.674;2023-02-20T00:18:18;44.28;;;26.67;;
35689;SDS011;26977;44.830;-0.674;2023-02-20T00:21:11;48.95;;;27.33;;
35689;SDS011;26977;44.830;-0.674;2023-02-20T00:23:55;47.08;;;28.20;;
35689;SDS011;26977;44.830;-0.674;2023-02-20T00:26:50;51.80;;;27.60;;
35689;SDS011;26977;44.830;-0.674;2023-02-20T00:29:44;48.40;;;27.58;;
35689;SDS011;26977;44.830;-0.674;2023-02-20T00:32:38;50.53;;;26.58;;
35689;SDS011;26977;44.830;-0.674;2023-02-20T00:35:28;45.22;;;26.70;;
35689;SDS011;26977;44.830;-0.674;2023-02-20T00:38:06;48.65;;;26.33;;
35689;SDS011;26977;44.830;-0.674;2023-02-20T00:40:58;43.25;;;25.48;;
35689;SDS011;26977;44.830;-0.674;2023-02-20T00:44:00;45.00;;;26.42;;
35689;SDS011;26977;44.830;-0.674;2023-02-20T00:47:01;42.92;;;25.23;;
35689;SDS011;26977;44.830;-0.674;2023-02-20T00:49:54;44.20;;;25.02;;
35689;SDS011;26977;44.830;-0.674;2023-02-20T00:52:51;39.00;;;23.40;;
35689;SDS011;26977;44.830;-0.674;2023-02-20T00:55:51;44.05;;;24.42;;
35689;SDS011;26977;44.830;-0.674;2023-02-20T00:58:41;41.72;;;24.70;;
35689;SDS011;26977;44.830;-0.674;2023-02-20T01:01:20;38.80;;;23.15;;
35689;SDS011;26977;44.830;-0.674;2023-02-20T01:04:06;38.63;;;22.70;;
35689;SDS011;26977;44.830;-0.674;2023-02-20T01:07:10;38.78;;;22.80;;
35689;SDS011;26977;44.830;-0.674;2023-02-20T01:10:13;38.15;;;22.60;;
35689;SDS011;26977;44.830;-0.674;2023-02-20T01:13:10;39.30;;;22.90;;
35689;SDS011;26977;44.830;-0.674;2023-02-20T01:15:43;37.80;;;22.45;;
35689;SDS011;26977;44.830;-0.674;2023-02-20T01:18:40;36.35;;;21.88;;
35689;SDS011;26977;44.830;-0.674;2023-02-20T01:21:30;39.97;;;22.35;;
35689;SDS011;26977;44.830;-0.674;2023-02-20T01:24:25;40.40;;;22.95;;
35689;SDS011;26977;44.830;-0.674;2023-02-20T01:27:19;43.33;;;23.67;;
35689;SDS011;26977;44.830;-0.674;2023-02-20T01:30:09;42.30;;;24.33;;
35689;SDS011;26977;44.830;-0.674;2023-02-20T01:33:01;39.38;;;22.55;;
35689;SDS011;26977;44.830;-0.674;2023-02-20T01:36:02;40.53;;;22.20;;
35689;SDS011;26977;44.830;-0.674;2023-02-20T01:38:57;42.70;;;23.17;;
35689;SDS011;26977;44.830;-0.674;2023-02-20T01:41:47;40.28;;;22.20;;
35689;SDS011;26977;44.830;-0.674;2023-02-20T01:44:43;42.58;;;23.80;;
35689;SDS011;26977;44.830;-0.674;2023-02-20T01:47:52;44.15;;;24.20;;
35689;SDS011;26977;44.830;-0.674;2023-02-20T01:50:41;40.70;;;23.55;;
35689;SDS011;26977;44.830;-0.674;2023-02-20T01:53:45;36.85;;;21.70;;
35689;SDS011;26977;44.830;-0.674;2023-02-20T01:56:18;39.65;;;21.83;;
35689;SDS011;26977;44.830;-0.674;2023-02-20T01:59:28;35.42;;;21.23;;
35689;SDS011;26977;44.830;-0.674;2023-02-20T02:02:17;43.70;;;22.65;;
35689;SDS011;26977;44.830;-0.674;2023-02-20T02:05:09;39.40;;;22.55;;
35689;SDS011;26977;44.830;-0.674;2023-02-20T02:08:06;36.50;;;21.48;;
35689;SDS011;26977;44.830;-0.674;2023-02-20T02:13:43;40.53;;;23.42;;
35689;SDS011;26977;44.830;-0.674;2023-02-20T02:25:22;49.00;;;25.02;;
35689;SDS011;26977;44.830;-0.674;2023-02-20T02:45:44;47.58;;;26.27;;
35689;SDS011;26977;44.830;-0.674;2023-02-20T02:48:38;49.45;;;25.88;;
35689;SDS011;26977;44.830;-0.674;2023-02-20T02:51:31;44.85;;;25.73;;
35689;SDS011;26977;44.830;-0.674;2023-02-20T02:54:25;42.72;;;24.55;;
35689;SDS011;26977;44.830;-0.674;2023-02-20T02:57:20;48.45;;;26.05;;
35689;SDS011;26977;44.830;-0.674;2023-02-20T03:00:17;48.67;;;25.67;;
35689;SDS011;26977;44.830;-0.674;2023-02-20T03:03:15;47.88;;;25.67;;
35689;SDS011;26977;44.830;-0.674;2023-02-20T03:06:30;42.10;;;23.45;;
35689;SDS011;26977;44.830;-0.674;2023-02-20T03:09:24;43.80;;;23.45;;
35689;SDS011;26977;44.830;-0.674;2023-02-20T03:15:06;43.83;;;24.25;;
35689;SDS011;26977;44.830;-0.674;2023-02-20T03:20:58;48.63;;;26.38;;
35689;SDS011;26977;44.830;-0.674;2023-02-20T03:23:40;52.15;;;28.00;;
35689;SDS011;26977;44.830;-0.674;2023-02-20T03:26:28;47.92;;;26.65;;
35689;SDS011;26977;44.830;-0.674;2023-02-20T03:29:32;53.00;;;26.65;;
35689;SDS011;26977;44.830;-0.674;2023-02-20T03:32:35;48.63;;;26.95;;
35689;SDS011;26977;44.830;-0.674;2023-02-20T03:35:31;56.10;;;28.33;;
35689;SDS011;26977;44.830;-0.674;2023-02-20T03:38:40;51.13;;;27.48;;
35689;SDS011;26977;44.830;-0.674;2023-02-20T03:41:38;53.35;;;27.45;;
35689;SDS011;26977;44.830;-0.674;2023-02-20T03:44:37;56.38;;;27.15;;
35689;SDS011;26977;44.830;-0.674;2023-02-20T03:47:29;55.95;;;27.60;;
35689;SDS011;26977;44.830;-0.674;2023-02-20T03:50:09;47.30;;;26.05;;
35689;SDS011;26977;44.830;-0.674;2023-02-20T03:53:06;54.83;;;28.08;;
35689;SDS011;26977;44.830;-0.674;2023-02-20T03:55:47;54.75;;;28.33;;
35689;SDS011;26977;44.830;-0.674;2023-02-20T03:58:20;55.13;;;29.20;;
35689;SDS011;26977;44.830;-0.674;2023-02-20T04:01:25;53.80;;;27.63;;
35689;SDS011;26977;44.830;-0.674;2023-02-20T04:04:11;51.90;;;27.35;;
35689;SDS011;26977;44.830;-0.674;2023-02-20T04:07:11;49.65;;;26.65;;
35689;SDS011;26977;44.830;-0.674;2023-02-20T04:10:23;55.53;;;28.33;;
35689;SDS011;26977;44.830;-0.674;2023-02-20T04:13:14;61.38;;;30.90;;
35689;SDS011;26977;44.830;-0.674;2023-02-20T04:16:12;61.30;;;30.85;;
35689;SDS011;26977;44.830;-0.674;2023-02-20T04:19:04;54.63;;;29.25;;
35689;SDS011;26977;44.830;-0.674;2023-02-20T04:22:02;56.05;;;28.40;;
35689;SDS011;26977;44.830;-0.674;2023-02-20T04:25:03;58.50;;;29.40;;
35689;SDS011;26977;44.830;-0.674;2023-02-20T04:28:09;52.20;;;28.35;;
35689;SDS011;26977;44.830;-0.674;2023-02-20T04:31:14;57.08;;;28.58;;
35689;SDS011;26977;44.830;-0.674;2023-02-20T04:33:45;61.40;;;31.83;;
35689;SDS011;26977;44.830;-0.674;2023-02-20T04:36:34;61.05;;;31.10;;
35689;SDS011;26977;44.830;-0.674;2023-02-20T04:39:24;62.60;;;31.65;;
35689;SDS011;26977;44.830;-0.674;2023-02-20T04:42:24;57.35;;;29.60;;
35689;SDS011;26977;44.830;-0.674;2023-02-20T04:45:22;61.95;;;31.45;;
35689;SDS011;26977;44.830;-0.674;2023-02-20T04:48:14;61.83;;;31.48;;
35689;SDS011;26977;44.830;-0.674;2023-02-20T04:51:14;60.42;;;30.10;;
35689;SDS011;26977;44.830;-0.674;2023-02-20T04:54:07;60.05;;;30.40;;
35689;SDS011;26977;44.830;-0.674;2023-02-20T04:57:07;60.53;;;29.75;;
35689;SDS011;26977;44.830;-0.674;2023-02-20T04:59:59;62.08;;;31.02;;
35689;SDS011;26977;44.830;-0.674;2023-02-20T05:02:44;61.15;;;29.38;;
35689;SDS011;26977;44.830;-0.674;2023-02-20T05:05:47;61.15;;;29.95;;
35689;SDS011;26977;44.830;-0.674;2023-02-20T05:08:29;59.55;;;30.48;;
35689;SDS011;26977;44.830;-0.674;2023-02-20T05:11:17;69.43;;;30.45;;
35689;SDS011;26977;44.830;-0.674;2023-02-20T05:13:50;62.80;;;30.67;;
35689;SDS011;26977;44.830;-0.674;2023-02-20T05:16:33;72.40;;;30.77;;
35689;SDS011;26977;44.830;-0.674;2023-02-20T05:19:43;63.60;;;29.95;;
35689;SDS011;26977;44.830;-0.674;2023-02-20T05:22:33;85.22;;;32.78;;
35689;SDS011;26977;44.830;-0.674;2023-02-20T05:25:25;89.93;;;32.28;;
35689;SDS011;26977;44.830;-0.674;2023-02-20T05:28:13;83.05;;;32.47;;
35689;SDS011;26977;44.830;-0.674;2023-02-20T05:31:07;88.55;;;31.98;;
35689;SDS011;26977;44.830;-0.674;2023-02-20T05:33:48;92.00;;;32.35;;
35689;SDS011;26977;44.830;-0.674;2023-02-20T05:36:40;81.90;;;32.65;;
35689;SDS011;26977;44.830;-0.674;2023-02-20T05:39:39;79.28;;;31.02;;
35689;SDS011;26977;44.830;-0.674;2023-02-20T05:42:32;77.97;;;30.95;;
35689;SDS011;26977;44.830;-0.674;2023-02-20T05:45:24;75.05;;;30.65;;
35689;SDS011;26977;44.830;-0.674;2023-02-20T05:48:35;73.00;;;28.65;;
35689;SDS011;26977;44.830;-0.674;2023-02-20T05:54:08;75.97;;;29.92;;
35689;SDS011;26977;44.830;-0.674;2023-02-20T05:57:01;82.38;;;29.08;;
35689;SDS011;26977;44.830;-0.674;2023-02-20T05:59:53;77.97;;;29.63;;
35689;SDS011;26977;44.830;-0.674;2023-02-20T06:02:46;88.53;;;31.63;;
35689;SDS011;26977;44.830;-0.674;2023-02-20T06:05:46;106.95;;;33.85;;
35689;SDS011;26977;44.830;-0.674;2023-02-20T06:08:46;91.95;;;31.63;;
35689;SDS011;26977;44.830;-0.674;2023-02-20T06:11:52;91.25;;;31.65;;
35689;SDS011;26977;44.830;-0.674;2023-02-20T06:14:37;73.78;;;30.63;;
35689;SDS011;26977;44.830;-0.674;2023-02-20T06:17:26;88.20;;;32.92;;
35689;SDS011;26977;44.830;-0.674;2023-02-20T06:19:56;82.43;;;32.15;;
35689;SDS011;26977;44.830;-0.674;2023-02-20T06:22:47;86.78;;;32.80;;
35689;SDS011;26977;44.830;-0.674;2023-02-20T06:25:35;80.93;;;32.72;;
35689;SDS011;26977;44.830;-0.674;2023-02-20T06:28:12;79.93;;;32.65;;
35689;SDS011;26977;44.830;-0.674;2023-02-20T06:30:38;82.65;;;33.45;;
35689;SDS011;26977;44.830;-0.674;2023-02-20T06:33:14;75.88;;;31.85;;
35689;SDS011;26977;44.830;-0.674;2023-02-20T06:35:51;76.68;;;33.45;;
35689;SDS011;26977;44.830;-0.674;2023-02-20T06:38:17;84.53;;;34.75;;
35689;SDS011;26977;44.830;-0.674;2023-02-20T06:40:42;74.07;;;32.65;;
35689;SDS011;26977;44.830;-0.674;2023-02-20T06:43:09;92.72;;;35.28;;
35689;SDS011;26977;44.830;-0.674;2023-02-20T06:45:34;97.88;;;36.72;;
35689;SDS011;26977;44.830;-0.674;2023-02-20T06:48:02;108.68;;;37.90;;
35689;SDS011;26977;44.830;-0.674;2023-02-20T06:50:28;96.40;;;35.13;;
35689;SDS011;26977;44.830;-0.674;2023-02-20T06:52:54;103.50;;;35.50;;
35689;SDS011;26977;44.830;-0.674;2023-02-20T06:55:19;110.53;;;34.55;;
35689;SDS011;26977;44.830;-0.674;2023-02-20T06:57:45;129.75;;;36.70;;
35689;SDS011;26977;44.830;-0.674;2023-02-20T07:00:11;110.63;;;34.03;;
35689;SDS011;26977;44.830;-0.674;2023-02-20T07:02:37;122.68;;;35.47;;
35689;SDS011;26977;44.830;-0.674;2023-02-20T07:05:03;116.00;;;31.73;;
35689;SDS011;26977;44.830;-0.674;2023-02-20T07:07:29;123.47;;;33.67;;
35689;SDS011;26977;44.830;-0.674;2023-02-20T07:09:55;132.43;;;32.95;;
35689;SDS011;26977;44.830;-0.674;2023-02-20T07:12:23;118.15;;;31.38;;
35689;SDS011;26977;44.830;-0.674;2023-02-20T07:14:49;159.88;;;34.63;;
35689;SDS011;26977;44.830;-0.674;2023-02-20T07:17:15;140.30;;;32.10;;
35689;SDS011;26977;44.830;-0.674;2023-02-20T07:19:41;135.38;;;33.33;;
35689;SDS011;26977;44.830;-0.674;2023-02-20T07:22:07;153.48;;;36.28;;
35689;SDS011;26977;44.830;-0.674;2023-02-20T07:24:32;117.40;;;31.77;;
35689;SDS011;26977;44.830;-0.674;2023-02-20T07:27:00;136.98;;;30.48;;
35689;SDS011;26977;44.830;-0.674;2023-02-20T07:29:26;159.40;;;30.88;;
35689;SDS011;26977;44.830;-0.674;2023-02-20T07:31:52;200.40;;;30.63;;
35689;SDS011;26977;44.830;-0.674;2023-02-20T07:34:18;211.20;;;29.58;;
35689;SDS011;26977;44.830;-0.674;2023-02-20T07:36:43;150.90;;;31.42;;
35689;SDS011;26977;44.830;-0.674;2023-02-20T07:39:09;123.20;;;28.75;;
35689;SDS011;26977;44.830;-0.674;2023-02-20T07:41:36;148.25;;;30.63;;
35689;SDS011;26977;44.830;-0.674;2023-02-20T07:44:03;160.15;;;29.88;;
35689;SDS011;26977;44.830;-0.674;2023-02-20T07:46:29;148.40;;;31.38;;
35689;SDS011;26977;44.830;-0.674;2023-02-20T07:48:58;156.70;;;30.17;;
35689;SDS011;26977;44.830;-0.674;2023-02-20T07:51:25;169.65;;;30.90;;
35689;SDS011;26977;44.830;-0.674;2023-02-20T07:53:51;126.68;;;31.58;;
35689;SDS011;26977;44.830;-0.674;2023-02-20T07:56:19;127.00;;;30.50;;
35689;SDS011;26977;44.830;-0.674;2023-02-20T07:58:46;116.70;;;28.17;;
35689;SDS011;26977;44.830;-0.674;2023-02-20T08:01:12;124.22;;;29.80;;
35689;SDS011;26977;44.830;-0.674;2023-02-20T08:03:38;133.95;;;29.65;;
35689;SDS011;26977;44.830;-0.674;2023-02-20T08:06:04;120.32;;;29.67;;
35689;SDS011;26977;44.830;-0.674;2023-02-20T08:08:30;124.53;;;31.13;;
35689;SDS011;26977;44.830;-0.674;2023-02-20T08:10:55;172.63;;;34.53;;
35689;SDS011;26977;44.830;-0.674;2023-02-20T08:13:21;130.50;;;29.67;;
35689;SDS011;26977;44.830;-0.674;2023-02-20T08:15:47;128.15;;;32.50;;
35689;SDS011;26977;44.830;-0.674;2023-02-20T08:18:13;147.93;;;32.35;;
35689;SDS011;26977;44.830;-0.674;2023-02-20T08:20:39;154.68;;;32.47;;
35689;SDS011;26977;44.830;-0.674;2023-02-20T08:23:05;152.25;;;31.42;;
35689;SDS011;26977;44.830;-0.674;2023-02-20T08:25:40;148.48;;;32.38;;
35689;SDS011;26977;44.830;-0.674;2023-02-20T08:28:06;151.20;;;34.45;;
35689;SDS011;26977;44.830;-0.674;2023-02-20T08:30:31;155.02;;;34.15;;
35689;SDS011;26977;44.830;-0.674;2023-02-20T08:32:57;173.00;;;37.50;;
35689;SDS011;26977;44.830;-0.674;2023-02-20T08:35:23;139.15;;;38.13;;
35689;SDS011;26977;44.830;-0.674;2023-02-20T08:37:49;182.35;;;39.25;;
35689;SDS011;26977;44.830;-0.674;2023-02-20T08:40:14;189.93;;;39.05;;
35689;SDS011;26977;44.830;-0.674;2023-02-20T08:42:40;217.90;;;45.00;;
35689;SDS011;26977;44.830;-0.674;2023-02-20T08:45:06;213.25;;;46.78;;
35689;SDS011;26977;44.830;-0.674;2023-02-20T08:47:33;323.92;;;53.72;;
35689;SDS011;26977;44.830;-0.674;2023-02-20T08:49:59;236.10;;;52.20;;
35689;SDS011;26977;44.830;-0.674;2023-02-20T08:52:24;304.05;;;56.40;;
35689;SDS011;26977;44.830;-0.674;2023-02-20T08:54:50;301.73;;;57.20;;
35689;SDS011;26977;44.830;-0.674;2023-02-20T08:57:16;295.92;;;61.33;;
35689;SDS011;26977;44.830;-0.674;2023-02-20T08:59:43;302.30;;;59.72;;
35689;SDS011;26977;44.830;-0.674;2023-02-20T09:02:14;288.10;;;62.03;;
35689;SDS011;26977;44.830;-0.674;2023-02-20T09:04:43;324.30;;;61.28;;
35689;SDS011;26977;44.830;-0.674;2023-02-20T09:07:10;288.42;;;64.15;;
35689;SDS011;26977;44.830;-0.674;2023-02-20T09:09:37;269.58;;;63.20;;
35689;SDS011;26977;44.830;-0.674;2023-02-20T09:12:03;345.90;;;69.18;;
35689;SDS011;26977;44.830;-0.674;2023-02-20T09:14:29;339.25;;;68.72;;
35689;SDS011;26977;44.830;-0.674;2023-02-20T09:16:54;277.75;;;66.18;;
35689;SDS011;26977;44.830;-0.674;2023-02-20T09:19:20;247.88;;;61.13;;
35689;SDS011;26977;44.830;-0.674;2023-02-20T09:21:48;297.42;;;64.28;;
35689;SDS011;26977;44.830;-0.674;2023-02-20T09:24:13;269.52;;;65.65;;
35689;SDS011;26977;44.830;-0.674;2023-02-20T09:26:39;229.57;;;56.08;;
35689;SDS011;26977;44.830;-0.674;2023-02-20T09:29:05;297.13;;;58.05;;
35689;SDS011;26977;44.830;-0.674;2023-02-20T09:31:30;198.50;;;53.13;;
35689;SDS011;26977;44.830;-0.674;2023-02-20T09:33:56;227.00;;;53.30;;
35689;SDS011;26977;44.830;-0.674;2023-02-20T09:36:22;202.73;;;60.45;;
35689;SDS011;26977;44.830;-0.674;2023-02-20T09:38:47;201.45;;;57.25;;
35689;SDS011;26977;44.830;-0.674;2023-02-20T09:46:29;185.00;;;55.67;;
35689;SDS011;26977;44.830;-0.674;2023-02-20T09:51:37;204.57;;;56.15;;
35689;SDS011;26977;44.830;-0.674;2023-02-20T09:54:08;188.35;;;58.83;;
35689;SDS011;26977;44.830;-0.674;2023-02-20T09:56:41;176.48;;;57.80;;
35689;SDS011;26977;44.830;-0.674;2023-02-20T09:59:17;164.98;;;55.55;;
35689;SDS011;26977;44.830;-0.674;2023-02-20T10:04:21;173.00;;;60.40;;
35689;SDS011;26977;44.830;-0.674;2023-02-20T10:06:52;171.18;;;60.58;;
35689;SDS011;26977;44.830;-0.674;2023-02-20T10:09:21;167.05;;;60.97;;
35689;SDS011;26977;44.830;-0.674;2023-02-20T10:11:58;177.40;;;63.15;;
35689;SDS011;26977;44.830;-0.674;2023-02-20T10:20:29;166.82;;;64.68;;
35689;SDS011;26977;44.830;-0.674;2023-02-20T10:25:34;147.55;;;62.65;;
35689;SDS011;26977;44.830;-0.674;2023-02-20T10:28:08;133.38;;;59.90;;
35689;SDS011;26977;44.830;-0.674;2023-02-20T10:30:38;121.63;;;57.35;;
35689;SDS011;26977;44.830;-0.674;2023-02-20T10:35:38;110.75;;;54.65;;
35689;SDS011;26977;44.830;-0.674;2023-02-20T10:38:28;99.78;;;49.78;;
35689;SDS011;26977;44.830;-0.674;2023-02-20T10:41:04;87.97;;;48.00;;
35689;SDS011;26977;44.830;-0.674;2023-02-20T10:43:45;92.07;;;47.30;;
35689;SDS011;26977;44.830;-0.674;2023-02-20T10:48:57;86.28;;;47.83;;
35689;SDS011;26977;44.830;-0.674;2023-02-20T10:51:27;90.70;;;49.60;;
35689;SDS011;26977;44.830;-0.674;2023-02-20T10:53:59;82.53;;;46.20;;
35689;SDS011;26977;44.830;-0.674;2023-02-20T11:01:32;70.45;;;43.15;;
35689;SDS011;26977;44.830;-0.674;2023-02-20T11:04:01;75.32;;;41.40;;
35689;SDS011;26977;44.830;-0.674;2023-02-20T11:06:39;55.22;;;36.45;;
35689;SDS011;26977;44.830;-0.674;2023-02-20T11:09:14;56.60;;;35.47;;
35689;SDS011;26977;44.830;-0.674;2023-02-20T11:11:41;52.58;;;31.83;;
35689;SDS011;26977;44.830;-0.674;2023-02-20T11:14:13;42.72;;;28.63;;
35689;SDS011;26977;44.830;-0.674;2023-02-20T11:16:45;37.80;;;27.10;;
35689;SDS011;26977;44.830;-0.674;2023-02-20T11:19:20;33.42;;;23.92;;
35689;SDS011;26977;44.830;-0.674;2023-02-20T11:21:51;32.25;;;23.55;;
35689;SDS011;26977;44.830;-0.674;2023-02-20T11:24:25;32.95;;;22.60;;
35689;SDS011;26977;44.830;-0.674;2023-02-20T11:27:27;31.23;;;21.67;;
35689;SDS011;26977;44.830;-0.674;2023-02-20T11:32:22;30.55;;;21.20;;
35689;SDS011;26977;44.830;-0.674;2023-02-20T11:35:01;24.67;;;19.30;;
35689;SDS011;26977;44.830;-0.674;2023-02-20T11:37:45;23.35;;;17.13;;
35689;SDS011;26977;44.830;-0.674;2023-02-20T11:42:56;22.00;;;16.05;;
35689;SDS011;26977;44.830;-0.674;2023-02-20T11:45:42;20.13;;;14.77;;
35689;SDS011;26977;44.830;-0.674;2023-02-20T11:48:09;18.38;;;13.48;;
35689;SDS011;26977;44.830;-0.674;2023-02-20T11:59:38;14.30;;;10.65;;
35689;SDS011;26977;44.830;-0.674;2023-02-20T12:04:40;12.95;;;9.88;;
35689;SDS011;26977;44.830;-0.674;2023-02-20T12:07:27;12.77;;;9.68;;
35689;SDS011;26977;44.830;-0.674;2023-02-20T12:09:58;12.45;;;10.20;;
35689;SDS011;26977;44.830;-0.674;2023-02-20T12:12:31;12.88;;;10.40;;
35689;SDS011;26977;44.830;-0.674;2023-02-20T12:14:57;12.63;;;9.70;;
35689;SDS011;26977;44.830;-0.674;2023-02-20T12:20:16;14.85;;;10.63;;
35689;SDS011;26977;44.830;-0.674;2023-02-20T12:22:50;14.60;;;10.20;;
35689;SDS011;26977;44.830;-0.674;2023-02-20T12:30:46;14.60;;;10.95;;
35689;SDS011;26977;44.830;-0.674;2023-02-20T12:39:17;13.77;;;9.90;;
35689;SDS011;26977;44.830;-0.674;2023-02-20T12:41:57;12.35;;;9.82;;
35689;SDS011;26977;44.830;-0.674;2023-02-20T12:47:28;15.73;;;9.68;;
35689;SDS011;26977;44.830;-0.674;2023-02-20T12:50:39;12.02;;;9.27;;
35689;SDS011;26977;44.830;-0.674;2023-02-20T12:53:11;11.23;;;8.70;;
35689;SDS011;26977;44.830;-0.674;2023-02-20T13:01:00;10.00;;;7.88;;
35689;SDS011;26977;44.830;-0.674;2023-02-20T13:09:04;10.32;;;6.00;;
35689;SDS011;26977;44.830;-0.674;2023-02-20T13:11:38;13.82;;;6.03;;
35689;SDS011;26977;44.830;-0.674;2023-02-20T13:19:48;5.97;;;4.68;;
35689;SDS011;26977;44.830;-0.674;2023-02-20T13:22:22;7.07;;;5.00;;
35689;SDS011;26977;44.830;-0.674;2023-02-20T13:24:47;7.93;;;4.55;;
35689;SDS011;26977;44.830;-0.674;2023-02-20T13:27:29;8.57;;;4.80;;
35689;SDS011;26977;44.830;-0.674;2023-02-20T13:32:45;5.97;;;3.95;;
35689;SDS011;26977;44.830;-0.674;2023-02-20T13:38:17;8.00;;;4.50;;
35689;SDS011;26977;44.830;-0.674;2023-02-20T13:56:54;6.68;;;4.50;;
35689;SDS011;26977;44.830;-0.674;2023-02-20T13:59:25;10.98;;;4.68;;
35689;SDS011;26977;44.830;-0.674;2023-02-20T14:01:53;8.88;;;5.47;;
35689;SDS011;26977;44.830;-0.674;2023-02-20T14:04:20;9.60;;;4.38;;
35689;SDS011;26977;44.830;-0.674;2023-02-20T14:06:49;7.22;;;4.53;;
35689;SDS011;26977;44.830;-0.674;2023-02-20T14:09:23;6.93;;;4.70;;
35689;SDS011;26977;44.830;-0.674;2023-02-20T14:11:54;5.82;;;3.47;;
35689;SDS011;26977;44.830;-0.674;2023-02-20T14:14:33;6.75;;;3.63;;
35689;SDS011;26977;44.830;-0.674;2023-02-20T14:17:12;6.47;;;4.30;;
35689;SDS011;26977;44.830;-0.674;2023-02-20T14:19:41;9.32;;;3.92;;
35689;SDS011;26977;44.830;-0.674;2023-02-20T14:22:12;5.28;;;3.90;;
35689;SDS011;26977;44.830;-0.674;2023-02-20T14:24:45;4.63;;;3.22;;
35689;SDS011;26977;44.830;-0.674;2023-02-20T14:27:28;3.80;;;2.85;;
35689;SDS011;26977;44.830;-0.674;2023-02-20T14:30:06;4.97;;;2.78;;
35689;SDS011;26977;44.830;-0.674;2023-02-20T14:32:33;7.57;;;3.42;;
35689;SDS011;26977;44.830;-0.674;2023-02-20T14:37:54;5.07;;;2.63;;
35689;SDS011;26977;44.830;-0.674;2023-02-20T14:40:42;5.85;;;2.90;;
35689;SDS011;26977;44.830;-0.674;2023-02-20T14:45:45;4.95;;;3.10;;
35689;SDS011;26977;44.830;-0.674;2023-02-20T14:48:27;6.20;;;2.70;;
35689;SDS011;26977;44.830;-0.674;2023-02-20T14:51:04;3.63;;;2.70;;
35689;SDS011;26977;44.830;-0.674;2023-02-20T14:53:41;3.80;;;2.60;;
35689;SDS011;26977;44.830;-0.674;2023-02-20T14:56:12;4.45;;;2.78;;
35689;SDS011;26977;44.830;-0.674;2023-02-20T14:58:41;4.27;;;2.90;;
35689;SDS011;26977;44.830;-0.674;2023-02-20T15:01:18;3.92;;;3.20;;
35689;SDS011;26977;44.830;-0.674;2023-02-20T15:04:11;8.70;;;3.35;;
35689;SDS011;26977;44.830;-0.674;2023-02-20T15:06:40;10.40;;;3.47;;
35689;SDS011;26977;44.830;-0.674;2023-02-20T15:09:08;6.25;;;3.50;;
35689;SDS011;26977;44.830;-0.674;2023-02-20T15:11:35;5.53;;;3.65;;
35689;SDS011;26977;44.830;-0.674;2023-02-20T15:14:23;11.20;;;6.05;;
35689;SDS011;26977;44.830;-0.674;2023-02-20T15:19:38;14.30;;;8.65;;
35689;SDS011;26977;44.830;-0.674;2023-02-20T15:22:05;16.38;;;8.52;;
35689;SDS011;26977;44.830;-0.674;2023-02-20T15:24:46;14.15;;;8.60;;
35689;SDS011;26977;44.830;-0.674;2023-02-20T15:29:45;11.05;;;7.75;;
35689;SDS011;26977;44.830;-0.674;2023-02-20T15:34:48;15.20;;;8.60;;
35689;SDS011;26977;44.830;-0.674;2023-02-20T15:40:24;12.43;;;7.88;;
35689;SDS011;26977;44.830;-0.674;2023-02-20T15:42:55;17.00;;;10.02;;
35689;SDS011;26977;44.830;-0.674;2023-02-20T15:45:30;16.35;;;10.27;;
35689;SDS011;26977;44.830;-0.674;2023-02-20T15:47:56;14.32;;;9.20;;
35689;SDS011;26977;44.830;-0.674;2023-02-20T15:50:22;14.20;;;10.77;;
35689;SDS011;26977;44.830;-0.674;2023-02-20T15:52:50;13.05;;;11.25;;
35689;SDS011;26977;44.830;-0.674;2023-02-20T15:55:16;17.60;;;11.18;;
35689;SDS011;26977;44.830;-0.674;2023-02-20T15:57:44;16.13;;;11.00;;
35689;SDS011;26977;44.830;-0.674;2023-02-20T16:00:18;23.00;;;12.25;;
35689;SDS011;26977;44.830;-0.674;2023-02-20T16:02:46;13.93;;;11.45;;
35689;SDS011;26977;44.830;-0.674;2023-02-20T16:05:12;11.90;;;10.43;;
35689;SDS011;26977;44.830;-0.674;2023-02-20T16:07:38;13.35;;;10.75;;
35689;SDS011;26977;44.830;-0.674;2023-02-20T16:10:03;13.75;;;10.25;;
35689;SDS011;26977;44.830;-0.674;2023-02-20T16:12:29;19.55;;;10.07;;
35689;SDS011;26977;44.830;-0.674;2023-02-20T16:14:58;11.07;;;9.18;;
35689;SDS011;26977;44.830;-0.674;2023-02-20T16:17:25;11.35;;;9.15;;
35689;SDS011;26977;44.830;-0.674;2023-02-20T16:19:52;16.25;;;8.65;;
35689;SDS011;26977;44.830;-0.674;2023-02-20T16:22:18;14.52;;;9.07;;
35689;SDS011;26977;44.830;-0.674;2023-02-20T16:24:44;10.13;;;8.35;;
35689;SDS011;26977;44.830;-0.674;2023-02-20T16:27:14;11.30;;;8.50;;
35689;SDS011;26977;44.830;-0.674;2023-02-20T16:29:46;11.10;;;8.57;;
35689;SDS011;26977;44.830;-0.674;2023-02-20T16:32:20;12.27;;;8.18;;
35689;SDS011;26977;44.830;-0.674;2023-02-20T16:34:49;12.85;;;7.97;;
35689;SDS011;26977;44.830;-0.674;2023-02-20T16:37:16;12.07;;;7.97;;
35689;SDS011;26977;44.830;-0.674;2023-02-20T16:39:42;13.23;;;7.70;;
35689;SDS011;26977;44.830;-0.674;2023-02-20T16:44:46;11.70;;;8.30;;
35689;SDS011;26977;44.830;-0.674;2023-02-20T16:47:15;11.27;;;7.53;;
35689;SDS011;26977;44.830;-0.674;2023-02-20T16:49:42;12.85;;;8.32;;
35689;SDS011;26977;44.830;-0.674;2023-02-20T16:52:15;12.35;;;7.45;;
35689;SDS011;26977;44.830;-0.674;2023-02-20T16:54:45;9.80;;;7.15;;
35689;SDS011;26977;44.830;-0.674;2023-02-20T16:57:13;12.13;;;7.40;;
35689;SDS011;26977;44.830;-0.674;2023-02-20T16:59:40;11.80;;;7.45;;
35689;SDS011;26977;44.830;-0.674;2023-02-20T17:02:06;10.45;;;7.72;;
35689;SDS011;26977;44.830;-0.674;2023-02-20T17:04:32;10.57;;;7.18;;
35689;SDS011;26977;44.830;-0.674;2023-02-20T17:06:58;11.80;;;7.55;;
35689;SDS011;26977;44.830;-0.674;2023-02-20T17:09:23;13.95;;;8.13;;
35689;SDS011;26977;44.830;-0.674;2023-02-20T17:11:49;10.50;;;7.28;;
35689;SDS011;26977;44.830;-0.674;2023-02-20T17:14:15;11.45;;;7.35;;
35689;SDS011;26977;44.830;-0.674;2023-02-20T17:16:40;14.57;;;7.88;;
35689;SDS011;26977;44.830;-0.674;2023-02-20T17:19:10;12.20;;;7.93;;
35689;SDS011;26977;44.830;-0.674;2023-02-20T17:21:36;15.75;;;8.30;;
35689;SDS011;26977;44.830;-0.674;2023-02-20T17:24:02;14.20;;;7.88;;
35689;SDS011;26977;44.830;-0.674;2023-02-20T17:26:28;13.32;;;8.00;;
35689;SDS011;26977;44.830;-0.674;2023-02-20T17:28:54;18.73;;;8.68;;
35689;SDS011;26977;44.830;-0.674;2023-02-20T17:31:19;11.85;;;7.85;;
35689;SDS011;26977;44.830;-0.674;2023-02-20T17:33:46;11.93;;;7.93;;
35689;SDS011;26977;44.830;-0.674;2023-02-20T17:36:12;11.02;;;7.60;;
35689;SDS011;26977;44.830;-0.674;2023-02-20T17:38:40;12.52;;;8.23;;
35689;SDS011;26977;44.830;-0.674;2023-02-20T17:41:07;13.85;;;8.45;;
35689;SDS011;26977;44.830;-0.674;2023-02-20T17:43:32;15.43;;;8.00;;
35689;SDS011;26977;44.830;-0.674;2023-02-20T17:45:58;12.95;;;8.05;;
35689;SDS011;26977;44.830;-0.674;2023-02-20T17:48:24;12.18;;;8.45;;
35689;SDS011;26977;44.830;-0.674;2023-02-20T17:50:49;12.30;;;8.25;;